sensor_id;sensor_type;location;lat;lon;timestamp;temperature;humidity
66608;DHT22;53462;39.616;8.824;2024-03-23T00:53:51;12.10;99.90
66608;DHT22;53462;39.616;8.824;2024-03-23T00:56:17;12.00;99.90
66608;DHT22;53462;39.616;8.824;2024-03-23T00:58:43;11.60;99.90
66608;DHT22;53462;39.616;8.824;2024-03-23T01:01:09;11.50;99.90
66608;DHT22;53462;39.616;8.824;2024-03-23T01:03:35;11.50;99.90
66608;DHT22;53462;39.616;8.824;2024-03-23T01:06:02;11.50;99.90
66608;DHT22;53462;39.616;8.824;2024-03-23T01:08:28;11.20;99.90
66608;DHT22;53462;39.616;8.824;2024-03-23T01:11:01;10.90;99.90
66608;DHT22;53462;39.616;8.824;2024-03-23T01:13:28;10.90;99.90
66608;DHT22;53462;39.616;8.824;2024-03-23T01:15:55;11.00;99.90
66608;DHT22;53462;39.616;8.824;2024-03-23T01:18:22;11.30;99.90
66608;DHT22;53462;39.616;8.824;2024-03-23T01:20:48;11.50;99.90
66608;DHT22;53462;39.616;8.824;2024-03-23T01:23:14;11.60;99.90
66608;DHT22;53462;39.616;8.824;2024-03-23T01:25:40;11.60;99.90
66608;DHT22;53462;39.616;8.824;2024-03-23T01:28:06;11.60;99.90
66608;DHT22;53462;39.616;8.824;2024-03-23T01:30:33;11.50;99.90
66608;DHT22;53462;39.616;8.824;2024-03-23T01:32:59;11.40;99.90
66608;DHT22;53462;39.616;8.824;2024-03-23T01:35:25;11.30;99.90
66608;DHT22;53462;39.616;8.824;2024-03-23T01:37:51;11.20;99.90
66608;DHT22;53462;39.616;8.824;2024-03-23T01:40:17;11.20;99.90
66608;DHT22;53462;39.616;8.824;2024-03-23T01:42:54;11.20;99.90
66608;DHT22;53462;39.616;8.824;2024-03-23T01:45:20;11.20;99.90
66608;DHT22;53462;39.616;8.824;2024-03-23T01:47:46;10.70;99.90
66608;DHT22;53462;39.616;8.824;2024-03-23T01:50:13;10.70;99.90
66608;DHT22;53462;39.616;8.824;2024-03-23T01:52:39;11.00;99.90
66608;DHT22;53462;39.616;8.824;2024-03-23T01:55:06;11.30;99.90
66608;DHT22;53462;39.616;8.824;2024-03-23T01:57:32;11.40;99.90
66608;DHT22;53462;39.616;8.824;2024-03-23T01:59:57;11.50;99.90
66608;DHT22;53462;39.616;8.824;2024-03-23T02:02:27;11.50;99.90
66608;DHT22;53462;39.616;8.824;2024-03-23T02:04:53;11.50;99.90
66608;DHT22;53462;39.616;8.824;2024-03-23T02:07:19;11.60;99.90
66608;DHT22;53462;39.616;8.824;2024-03-23T02:09:45;11.60;99.90
66608;DHT22;53462;39.616;8.824;2024-03-23T02:12:11;11.80;99.90
66608;DHT22;53462;39.616;8.824;2024-03-23T02:14:37;11.90;99.90
66608;DHT22;53462;39.616;8.824;2024-03-23T02:17:03;11.90;99.90
66608;DHT22;53462;39.616;8.824;2024-03-23T02:19:29;11.50;99.90
66608;DHT22;53462;39.616;8.824;2024-03-23T02:21:55;11.30;99.90
66608;DHT22;53462;39.616;8.824;2024-03-23T02:24:21;11.30;99.90
66608;DHT22;53462;39.616;8.824;2024-03-23T02:26:47;11.40;99.90
66608;DHT22;53462;39.616;8.824;2024-03-23T02:29:14;11.40;99.90
66608;DHT22;53462;39.616;8.824;2024-03-23T02:31:40;11.30;99.90
66608;DHT22;53462;39.616;8.824;2024-03-23T02:34:06;11.20;99.90
66608;DHT22;53462;39.616;8.824;2024-03-23T02:36:32;11.30;99.90
66608;DHT22;53462;39.616;8.824;2024-03-23T02:38:58;11.40;99.90
66608;DHT22;53462;39.616;8.824;2024-03-23T02:41:24;11.40;99.90
66608;DHT22;53462;39.616;8.824;2024-03-23T02:43:50;11.50;99.90
66608;DHT22;53462;39.616;8.824;2024-03-23T02:46:16;11.60;99.90
66608;DHT22;53462;39.616;8.824;2024-03-23T02:48:42;11.60;99.90
66608;DHT22;53462;39.616;8.824;2024-03-23T02:51:08;11.60;99.90
66608;DHT22;53462;39.616;8.824;2024-03-23T02:53:35;11.60;99.90
66608;DHT22;53462;39.616;8.824;2024-03-23T02:56:01;11.60;99.90
66608;DHT22;53462;39.616;8.824;2024-03-23T02:58:27;11.60;99.90
66608;DHT22;53462;39.616;8.824;2024-03-23T03:00:53;11.70;99.90
66608;DHT22;53462;39.616;8.824;2024-03-23T03:03:19;11.60;99.90
66608;DHT22;53462;39.616;8.824;2024-03-23T03:05:45;11.70;99.90
66608;DHT22;53462;39.616;8.824;2024-03-23T03:08:11;11.80;99.90
66608;DHT22;53462;39.616;8.824;2024-03-23T03:10:37;11.90;99.90
66608;DHT22;53462;39.616;8.824;2024-03-23T03:13:03;11.80;99.90
66608;DHT22;53462;39.616;8.824;2024-03-23T03:15:29;11.90;99.90
66608;DHT22;53462;39.616;8.824;2024-03-23T03:17:55;11.90;99.90
66608;DHT22;53462;39.616;8.824;2024-03-23T03:20:21;12.00;99.90
66608;DHT22;53462;39.616;8.824;2024-03-23T03:22:49;12.00;99.90
66608;DHT22;53462;39.616;8.824;2024-03-23T03:25:15;12.00;99.90
66608;DHT22;53462;39.616;8.824;2024-03-23T03:27:41;12.00;99.90
66608;DHT22;53462;39.616;8.824;2024-03-23T03:30:07;12.10;99.90
66608;DHT22;53462;39.616;8.824;2024-03-23T03:32:35;12.10;99.90
66608;DHT22;53462;39.616;8.824;2024-03-23T03:35:01;12.10;99.90
66608;DHT22;53462;39.616;8.824;2024-03-23T03:37:27;12.10;99.90
66608;DHT22;53462;39.616;8.824;2024-03-23T03:39:53;12.10;99.90
66608;DHT22;53462;39.616;8.824;2024-03-23T03:42:19;11.90;99.90
66608;DHT22;53462;39.616;8.824;2024-03-23T03:44:45;11.80;99.90
66608;DHT22;53462;39.616;8.824;2024-03-23T03:47:11;11.90;99.90
66608;DHT22;53462;39.616;8.824;2024-03-23T03:49:37;11.90;99.90
66608;DHT22;53462;39.616;8.824;2024-03-23T03:52:04;11.90;99.90
66608;DHT22;53462;39.616;8.824;2024-03-23T03:54:30;11.80;99.90
66608;DHT22;53462;39.616;8.824;2024-03-23T03:56:56;11.60;99.90
66608;DHT22;53462;39.616;8.824;2024-03-23T03:59:22;11.40;99.90
66608;DHT22;53462;39.616;8.824;2024-03-23T04:01:48;11.50;99.90
66608;DHT22;53462;39.616;8.824;2024-03-23T04:04:14;11.60;99.90
66608;DHT22;53462;39.616;8.824;2024-03-23T04:06:43;11.50;99.90
66608;DHT22;53462;39.616;8.824;2024-03-23T04:09:09;11.60;99.90
66608;DHT22;53462;39.616;8.824;2024-03-23T04:11:36;11.60;99.90
66608;DHT22;53462;39.616;8.824;2024-03-23T04:14:01;11.60;99.90
66608;DHT22;53462;39.616;8.824;2024-03-23T04:16:29;11.50;99.90
66608;DHT22;53462;39.616;8.824;2024-03-23T04:18:55;11.50;99.90
66608;DHT22;53462;39.616;8.824;2024-03-23T04:21:21;11.50;99.90
66608;DHT22;53462;39.616;8.824;2024-03-23T04:23:48;11.60;99.90
66608;DHT22;53462;39.616;8.824;2024-03-23T04:26:14;11.50;99.90
66608;DHT22;53462;39.616;8.824;2024-03-23T04:28:40;11.50;99.90
66608;DHT22;53462;39.616;8.824;2024-03-23T04:31:07;11.40;99.90
66608;DHT22;53462;39.616;8.824;2024-03-23T04:33:33;11.40;99.90
66608;DHT22;53462;39.616;8.824;2024-03-23T04:35:58;11.40;99.90
66608;DHT22;53462;39.616;8.824;2024-03-23T04:38:24;11.30;99.90
66608;DHT22;53462;39.616;8.824;2024-03-23T04:40:58;11.30;99.90
66608;DHT22;53462;39.616;8.824;2024-03-23T04:43:25;11.40;99.90
66608;DHT22;53462;39.616;8.824;2024-03-23T04:45:51;11.40;99.90
66608;DHT22;53462;39.616;8.824;2024-03-23T04:48:19;11.30;99.90
66608;DHT22;53462;39.616;8.824;2024-03-23T04:50:44;11.40;99.90
66608;DHT22;53462;39.616;8.824;2024-03-23T04:53:12;11.40;99.90
66608;DHT22;53462;39.616;8.824;2024-03-23T04:55:37;11.40;99.90
66608;DHT22;53462;39.616;8.824;2024-03-23T04:58:04;11.40;99.90
66608;DHT22;53462;39.616;8.824;2024-03-23T05:00:29;11.20;99.90
66608;DHT22;53462;39.616;8.824;2024-03-23T05:02:55;11.10;99.90
66608;DHT22;53462;39.616;8.824;2024-03-23T05:05:21;11.00;99.90
66608;DHT22;53462;39.616;8.824;2024-03-23T05:07:47;10.90;99.90
66608;DHT22;53462;39.616;8.824;2024-03-23T05:10:13;10.80;99.90
66608;DHT22;53462;39.616;8.824;2024-03-23T05:12:40;10.70;99.90
66608;DHT22;53462;39.616;8.824;2024-03-23T05:15:06;10.60;99.90
66608;DHT22;53462;39.616;8.824;2024-03-23T05:17:33;10.60;99.90
66608;DHT22;53462;39.616;8.824;2024-03-23T05:20:00;10.70;99.90
66608;DHT22;53462;39.616;8.824;2024-03-23T05:22:26;10.80;99.90
66608;DHT22;53462;39.616;8.824;2024-03-23T05:24:53;10.80;99.90
66608;DHT22;53462;39.616;8.824;2024-03-23T05:27:19;10.70;99.90
66608;DHT22;53462;39.616;8.824;2024-03-23T05:29:45;10.80;99.90
66608;DHT22;53462;39.616;8.824;2024-03-23T05:32:11;10.90;99.90
66608;DHT22;53462;39.616;8.824;2024-03-23T05:34:37;10.90;99.90
66608;DHT22;53462;39.616;8.824;2024-03-23T05:37:03;11.00;99.90
66608;DHT22;53462;39.616;8.824;2024-03-23T05:39:29;11.10;99.90
66608;DHT22;53462;39.616;8.824;2024-03-23T05:41:55;11.10;99.90
66608;DHT22;53462;39.616;8.824;2024-03-23T05:44:20;11.10;99.90
66608;DHT22;53462;39.616;8.824;2024-03-23T05:46:46;11.20;99.90
66608;DHT22;53462;39.616;8.824;2024-03-23T05:49:15;11.30;99.90
66608;DHT22;53462;39.616;8.824;2024-03-23T05:51:41;11.20;99.90
66608;DHT22;53462;39.616;8.824;2024-03-23T05:54:07;11.00;99.90
66608;DHT22;53462;39.616;8.824;2024-03-23T05:56:33;11.00;99.90
66608;DHT22;53462;39.616;8.824;2024-03-23T05:58:59;11.10;99.90
66608;DHT22;53462;39.616;8.824;2024-03-23T06:01:25;11.10;99.90
66608;DHT22;53462;39.616;8.824;2024-03-23T06:03:54;11.50;99.90
66608;DHT22;53462;39.616;8.824;2024-03-23T06:06:20;12.10;99.90
66608;DHT22;53462;39.616;8.824;2024-03-23T06:08:46;12.90;99.90
66608;DHT22;53462;39.616;8.824;2024-03-23T06:11:12;13.50;99.90
66608;DHT22;53462;39.616;8.824;2024-03-23T06:13:38;13.30;99.90
66608;DHT22;53462;39.616;8.824;2024-03-23T06:16:04;13.40;99.90
66608;DHT22;53462;39.616;8.824;2024-03-23T06:18:30;13.50;99.90
66608;DHT22;53462;39.616;8.824;2024-03-23T06:20:57;13.60;99.90
66608;DHT22;53462;39.616;8.824;2024-03-23T06:23:23;13.50;99.90
66608;DHT22;53462;39.616;8.824;2024-03-23T06:25:49;13.40;99.90
66608;DHT22;53462;39.616;8.824;2024-03-23T06:28:14;13.40;99.90
66608;DHT22;53462;39.616;8.824;2024-03-23T06:30:40;13.50;99.90
66608;DHT22;53462;39.616;8.824;2024-03-23T06:33:06;13.70;99.90
66608;DHT22;53462;39.616;8.824;2024-03-23T06:35:32;13.90;99.90
66608;DHT22;53462;39.616;8.824;2024-03-23T06:37:58;14.30;99.90
66608;DHT22;53462;39.616;8.824;2024-03-23T06:40:24;14.90;99.90
66608;DHT22;53462;39.616;8.824;2024-03-23T06:42:50;15.90;99.90
66608;DHT22;53462;39.616;8.824;2024-03-23T06:45:17;16.80;97.70
66608;DHT22;53462;39.616;8.824;2024-03-23T06:47:44;17.60;94.70
66608;DHT22;53462;39.616;8.824;2024-03-23T06:50:10;17.60;89.50
66608;DHT22;53462;39.616;8.824;2024-03-23T06:52:37;17.60;90.10
66608;DHT22;53462;39.616;8.824;2024-03-23T06:55:03;17.40;91.00
66608;DHT22;53462;39.616;8.824;2024-03-23T06:57:30;17.30;92.40
66608;DHT22;53462;39.616;8.824;2024-03-23T06:59:56;17.20;92.30
66608;DHT22;53462;39.616;8.824;2024-03-23T07:02:22;17.40;93.40
66608;DHT22;53462;39.616;8.824;2024-03-23T07:04:48;17.80;91.90
66608;DHT22;53462;39.616;8.824;2024-03-23T07:07:14;18.70;90.60
66608;DHT22;53462;39.616;8.824;2024-03-23T07:09:40;19.60;86.30
66608;DHT22;53462;39.616;8.824;2024-03-23T07:12:06;19.50;82.60
66608;DHT22;53462;39.616;8.824;2024-03-23T07:14:32;20.00;83.80
66608;DHT22;53462;39.616;8.824;2024-03-23T07:16:58;20.50;80.90
66608;DHT22;53462;39.616;8.824;2024-03-23T07:19:24;20.70;80.30
66608;DHT22;53462;39.616;8.824;2024-03-23T07:21:50;21.00;78.60
66608;DHT22;53462;39.616;8.824;2024-03-23T07:24:16;21.20;76.00
66608;DHT22;53462;39.616;8.824;2024-03-23T07:26:42;21.40;76.80
66608;DHT22;53462;39.616;8.824;2024-03-23T07:29:08;21.40;76.30
66608;DHT22;53462;39.616;8.824;2024-03-23T07:31:34;21.20;77.30
66608;DHT22;53462;39.616;8.824;2024-03-23T07:34:00;21.20;77.90
66608;DHT22;53462;39.616;8.824;2024-03-23T07:36:26;21.50;76.00
66608;DHT22;53462;39.616;8.824;2024-03-23T07:38:51;21.10;77.10
66608;DHT22;53462;39.616;8.824;2024-03-23T07:41:19;21.40;75.80
66608;DHT22;53462;39.616;8.824;2024-03-23T07:43:46;21.30;73.80
66608;DHT22;53462;39.616;8.824;2024-03-23T07:46:15;21.20;76.70
66608;DHT22;53462;39.616;8.824;2024-03-23T07:48:42;21.40;72.40
66608;DHT22;53462;39.616;8.824;2024-03-23T07:51:17;22.40;72.40
66608;DHT22;53462;39.616;8.824;2024-03-23T07:53:44;22.60;70.20
66608;DHT22;53462;39.616;8.824;2024-03-23T07:56:15;22.80;68.80
66608;DHT22;53462;39.616;8.824;2024-03-23T07:58:41;21.90;70.50
66608;DHT22;53462;39.616;8.824;2024-03-23T08:01:12;22.10;69.20
66608;DHT22;53462;39.616;8.824;2024-03-23T08:03:41;23.10;67.60
66608;DHT22;53462;39.616;8.824;2024-03-23T08:06:08;22.30;66.90
66608;DHT22;53462;39.616;8.824;2024-03-23T08:08:35;19.90;75.90
66608;DHT22;53462;39.616;8.824;2024-03-23T08:11:01;18.80;81.10
66608;DHT22;53462;39.616;8.824;2024-03-23T08:13:27;18.20;83.90
66608;DHT22;53462;39.616;8.824;2024-03-23T08:15:59;17.90;87.60
66608;DHT22;53462;39.616;8.824;2024-03-23T08:18:26;17.60;89.80
66608;DHT22;53462;39.616;8.824;2024-03-23T08:20:59;17.30;92.70
66608;DHT22;53462;39.616;8.824;2024-03-23T08:23:29;17.50;94.40
66608;DHT22;53462;39.616;8.824;2024-03-23T08:26:00;17.60;94.10
66608;DHT22;53462;39.616;8.824;2024-03-23T08:28:27;17.20;94.10
66608;DHT22;53462;39.616;8.824;2024-03-23T08:30:54;17.00;95.70
66608;DHT22;53462;39.616;8.824;2024-03-23T08:33:20;16.50;97.80
66608;DHT22;53462;39.616;8.824;2024-03-23T08:35:56;16.40;98.70
66608;DHT22;53462;39.616;8.824;2024-03-23T08:38:23;16.50;98.60
66608;DHT22;53462;39.616;8.824;2024-03-23T08:40:57;16.80;96.80
66608;DHT22;53462;39.616;8.824;2024-03-23T08:43:23;17.50;96.00
66608;DHT22;53462;39.616;8.824;2024-03-23T08:45:49;18.70;88.00
66608;DHT22;53462;39.616;8.824;2024-03-23T08:48:15;19.50;84.30
66608;DHT22;53462;39.616;8.824;2024-03-23T08:50:41;21.90;74.00
66608;DHT22;53462;39.616;8.824;2024-03-23T08:53:08;23.40;69.40
66608;DHT22;53462;39.616;8.824;2024-03-23T08:55:34;24.00;64.60
66608;DHT22;53462;39.616;8.824;2024-03-23T08:58:00;23.10;64.70
66608;DHT22;53462;39.616;8.824;2024-03-23T09:00:26;22.70;66.90
66608;DHT22;53462;39.616;8.824;2024-03-23T09:02:52;21.40;70.90
66608;DHT22;53462;39.616;8.824;2024-03-23T09:05:19;21.10;72.80
66608;DHT22;53462;39.616;8.824;2024-03-23T09:07:45;21.70;72.60
66608;DHT22;53462;39.616;8.824;2024-03-23T09:10:11;22.40;69.90
66608;DHT22;53462;39.616;8.824;2024-03-23T09:12:37;22.60;69.00
66608;DHT22;53462;39.616;8.824;2024-03-23T09:15:03;21.90;69.60
66608;DHT22;53462;39.616;8.824;2024-03-23T09:17:29;22.10;68.10
66608;DHT22;53462;39.616;8.824;2024-03-23T09:19:55;20.80;72.50
66608;DHT22;53462;39.616;8.824;2024-03-23T09:22:20;20.60;76.00
66608;DHT22;53462;39.616;8.824;2024-03-23T09:24:46;22.00;71.70
66608;DHT22;53462;39.616;8.824;2024-03-23T09:27:12;21.40;70.40
66608;DHT22;53462;39.616;8.824;2024-03-23T09:29:38;20.80;72.50
66608;DHT22;53462;39.616;8.824;2024-03-23T09:32:05;22.20;69.30
66608;DHT22;53462;39.616;8.824;2024-03-23T09:34:31;22.40;65.40
66608;DHT22;53462;39.616;8.824;2024-03-23T09:36:57;22.60;64.50
66608;DHT22;53462;39.616;8.824;2024-03-23T09:39:23;22.30;64.00
66608;DHT22;53462;39.616;8.824;2024-03-23T09:41:49;22.70;66.10
66608;DHT22;53462;39.616;8.824;2024-03-23T09:44:14;23.50;62.60
66608;DHT22;53462;39.616;8.824;2024-03-23T09:46:40;23.40;60.30
66608;DHT22;53462;39.616;8.824;2024-03-23T09:49:09;23.50;59.60
66608;DHT22;53462;39.616;8.824;2024-03-23T09:51:36;22.40;61.70
66608;DHT22;53462;39.616;8.824;2024-03-23T09:54:04;23.20;62.90
66608;DHT22;53462;39.616;8.824;2024-03-23T09:56:30;23.20;62.80
66608;DHT22;53462;39.616;8.824;2024-03-23T09:59:02;23.00;63.00
66608;DHT22;53462;39.616;8.824;2024-03-23T10:01:29;23.10;63.40
66608;DHT22;53462;39.616;8.824;2024-03-23T10:03:55;23.80;61.70
66608;DHT22;53462;39.616;8.824;2024-03-23T10:06:24;24.10;58.90
66608;DHT22;53462;39.616;8.824;2024-03-23T10:08:53;24.20;57.90
66608;DHT22;53462;39.616;8.824;2024-03-23T10:11:20;23.70;60.40
66608;DHT22;53462;39.616;8.824;2024-03-23T10:13:47;23.50;60.60
66608;DHT22;53462;39.616;8.824;2024-03-23T10:16:21;24.00;60.40
66608;DHT22;53462;39.616;8.824;2024-03-23T10:18:48;24.10;58.70
66608;DHT22;53462;39.616;8.824;2024-03-23T10:21:15;24.00;58.20
66608;DHT22;53462;39.616;8.824;2024-03-23T10:23:42;24.40;59.80
66608;DHT22;53462;39.616;8.824;2024-03-23T10:26:25;24.40;59.70
66608;DHT22;53462;39.616;8.824;2024-03-23T10:28:55;24.40;58.00
66608;DHT22;53462;39.616;8.824;2024-03-23T10:31:30;23.70;59.50
66608;DHT22;53462;39.616;8.824;2024-03-23T10:33:56;23.60;60.70
66608;DHT22;53462;39.616;8.824;2024-03-23T10:36:23;22.60;63.20
66608;DHT22;53462;39.616;8.824;2024-03-23T10:38:51;23.10;63.10
66608;DHT22;53462;39.616;8.824;2024-03-23T10:41:18;23.80;61.40
66608;DHT22;53462;39.616;8.824;2024-03-23T10:43:48;23.90;60.40
66608;DHT22;53462;39.616;8.824;2024-03-23T10:46:15;23.80;60.80
66608;DHT22;53462;39.616;8.824;2024-03-23T10:48:41;23.10;62.10
66608;DHT22;53462;39.616;8.824;2024-03-23T10:51:08;23.70;62.40
66608;DHT22;53462;39.616;8.824;2024-03-23T10:53:35;24.60;58.20
66608;DHT22;53462;39.616;8.824;2024-03-23T10:56:03;24.70;58.10
66608;DHT22;53462;39.616;8.824;2024-03-23T11:00:57;25.10;56.00
66608;DHT22;53462;39.616;8.824;2024-03-23T11:03:34;24.70;55.30
66608;DHT22;53462;39.616;8.824;2024-03-23T11:06:03;23.90;57.30
66608;DHT22;53462;39.616;8.824;2024-03-23T11:08:40;24.60;56.50
66608;DHT22;53462;39.616;8.824;2024-03-23T11:13:41;23.60;58.50
66608;DHT22;53462;39.616;8.824;2024-03-23T11:18:50;23.10;60.50
66608;DHT22;53462;39.616;8.824;2024-03-23T11:21:53;24.00;58.20
66608;DHT22;53462;39.616;8.824;2024-03-23T11:24:21;22.60;60.30
66608;DHT22;53462;39.616;8.824;2024-03-23T11:26:48;22.50;61.20
66608;DHT22;53462;39.616;8.824;2024-03-23T11:29:16;23.30;59.70
66608;DHT22;53462;39.616;8.824;2024-03-23T11:31:49;23.10;59.40
66608;DHT22;53462;39.616;8.824;2024-03-23T11:34:16;23.10;58.60
66608;DHT22;53462;39.616;8.824;2024-03-23T11:36:43;22.50;61.30
66608;DHT22;53462;39.616;8.824;2024-03-23T11:39:17;23.20;61.70
66608;DHT22;53462;39.616;8.824;2024-03-23T11:41:53;23.20;60.90
66608;DHT22;53462;39.616;8.824;2024-03-23T11:44:25;23.50;59.20
66608;DHT22;53462;39.616;8.824;2024-03-23T11:46:51;22.80;61.50
66608;DHT22;53462;39.616;8.824;2024-03-23T11:49:29;23.20;59.20
66608;DHT22;53462;39.616;8.824;2024-03-23T11:51:56;23.70;58.10
66608;DHT22;53462;39.616;8.824;2024-03-23T11:54:26;23.80;56.70
66608;DHT22;53462;39.616;8.824;2024-03-23T11:57:07;23.70;58.80
66608;DHT22;53462;39.616;8.824;2024-03-23T11:59:39;23.40;58.20
66608;DHT22;53462;39.616;8.824;2024-03-23T12:02:07;23.50;57.00
66608;DHT22;53462;39.616;8.824;2024-03-23T12:04:33;23.70;56.80
66608;DHT22;53462;39.616;8.824;2024-03-23T12:07:15;23.20;58.10
66608;DHT22;53462;39.616;8.824;2024-03-23T12:09:42;23.40;58.10
66608;DHT22;53462;39.616;8.824;2024-03-23T12:12:14;24.00;57.40
66608;DHT22;53462;39.616;8.824;2024-03-23T12:14:41;24.10;57.00
66608;DHT22;53462;39.616;8.824;2024-03-23T12:17:11;24.30;55.30
66608;DHT22;53462;39.616;8.824;2024-03-23T12:19:38;24.10;55.90
66608;DHT22;53462;39.616;8.824;2024-03-23T12:22:05;23.60;56.70
66608;DHT22;53462;39.616;8.824;2024-03-23T12:24:31;23.40;57.30
66608;DHT22;53462;39.616;8.824;2024-03-23T12:27:04;23.50;58.40
66608;DHT22;53462;39.616;8.824;2024-03-23T12:29:31;23.70;60.20
66608;DHT22;53462;39.616;8.824;2024-03-23T12:32:02;24.40;59.10
66608;DHT22;53462;39.616;8.824;2024-03-23T12:34:28;25.00;55.60
66608;DHT22;53462;39.616;8.824;2024-03-23T12:36:56;25.40;55.80
66608;DHT22;53462;39.616;8.824;2024-03-23T12:39:22;25.10;54.80
66608;DHT22;53462;39.616;8.824;2024-03-23T12:41:51;24.40;55.60
66608;DHT22;53462;39.616;8.824;2024-03-23T12:44:18;24.30;56.30
66608;DHT22;53462;39.616;8.824;2024-03-23T12:46:44;24.70;56.00
66608;DHT22;53462;39.616;8.824;2024-03-23T12:49:11;24.80;56.50
66608;DHT22;53462;39.616;8.824;2024-03-23T12:51:37;24.90;55.20
66608;DHT22;53462;39.616;8.824;2024-03-23T12:54:03;24.50;54.50
66608;DHT22;53462;39.616;8.824;2024-03-23T12:56:29;24.10;54.70
66608;DHT22;53462;39.616;8.824;2024-03-23T12:58:56;24.10;55.10
66608;DHT22;53462;39.616;8.824;2024-03-23T13:01:26;24.10;54.70
66608;DHT22;53462;39.616;8.824;2024-03-23T13:03:52;23.00;58.10
66608;DHT22;53462;39.616;8.824;2024-03-23T13:06:19;23.00;57.20
66608;DHT22;53462;39.616;8.824;2024-03-23T13:08:45;23.10;59.20
66608;DHT22;53462;39.616;8.824;2024-03-23T13:11:12;23.30;58.00
66608;DHT22;53462;39.616;8.824;2024-03-23T13:13:39;23.70;58.80
66608;DHT22;53462;39.616;8.824;2024-03-23T13:16:05;24.20;57.40
66608;DHT22;53462;39.616;8.824;2024-03-23T13:18:32;23.70;56.70
66608;DHT22;53462;39.616;8.824;2024-03-23T13:20:58;22.80;57.70
66608;DHT22;53462;39.616;8.824;2024-03-23T13:23:25;23.10;57.60
66608;DHT22;53462;39.616;8.824;2024-03-23T13:25:56;23.00;57.20
66608;DHT22;53462;39.616;8.824;2024-03-23T13:28:22;22.90;58.80
66608;DHT22;53462;39.616;8.824;2024-03-23T13:30:56;22.70;58.00
66608;DHT22;53462;39.616;8.824;2024-03-23T13:33:22;22.40;59.80
66608;DHT22;53462;39.616;8.824;2024-03-23T13:35:52;22.20;60.90
66608;DHT22;53462;39.616;8.824;2024-03-23T13:38:18;22.10;60.40
66608;DHT22;53462;39.616;8.824;2024-03-23T13:43:18;22.00;61.90
66608;DHT22;53462;39.616;8.824;2024-03-23T13:45:44;21.90;63.10
66608;DHT22;53462;39.616;8.824;2024-03-23T13:48:10;21.40;64.70
66608;DHT22;53462;39.616;8.824;2024-03-23T13:50:36;21.40;65.40
66608;DHT22;53462;39.616;8.824;2024-03-23T13:53:02;21.10;65.40
66608;DHT22;53462;39.616;8.824;2024-03-23T13:55:28;20.90;66.70
66608;DHT22;53462;39.616;8.824;2024-03-23T13:57:54;21.20;66.70
66608;DHT22;53462;39.616;8.824;2024-03-23T14:00:20;21.10;66.20
66608;DHT22;53462;39.616;8.824;2024-03-23T14:02:46;20.70;66.40
66608;DHT22;53462;39.616;8.824;2024-03-23T14:05:12;20.70;66.40
66608;DHT22;53462;39.616;8.824;2024-03-23T14:07:38;21.00;66.60
66608;DHT22;53462;39.616;8.824;2024-03-23T14:10:04;21.40;65.30
66608;DHT22;53462;39.616;8.824;2024-03-23T14:12:32;21.90;64.10
66608;DHT22;53462;39.616;8.824;2024-03-23T14:14:58;21.90;65.30
66608;DHT22;53462;39.616;8.824;2024-03-23T14:17:24;22.20;64.30
66608;DHT22;53462;39.616;8.824;2024-03-23T14:19:51;22.30;63.70
66608;DHT22;53462;39.616;8.824;2024-03-23T14:22:17;22.20;63.20
66608;DHT22;53462;39.616;8.824;2024-03-23T14:24:48;22.40;63.60
66608;DHT22;53462;39.616;8.824;2024-03-23T14:27:14;22.40;61.50
66608;DHT22;53462;39.616;8.824;2024-03-23T14:29:40;21.70;63.50
66608;DHT22;53462;39.616;8.824;2024-03-23T14:32:06;21.10;66.50
66608;DHT22;53462;39.616;8.824;2024-03-23T14:34:32;20.90;67.20
66608;DHT22;53462;39.616;8.824;2024-03-23T14:36:58;21.20;65.90
66608;DHT22;53462;39.616;8.824;2024-03-23T14:39:25;21.00;65.90
66608;DHT22;53462;39.616;8.824;2024-03-23T14:41:51;21.30;65.90
66608;DHT22;53462;39.616;8.824;2024-03-23T14:44:17;21.40;64.80
66608;DHT22;53462;39.616;8.824;2024-03-23T14:46:43;20.80;65.80
66608;DHT22;53462;39.616;8.824;2024-03-23T14:49:15;20.70;66.70
66608;DHT22;53462;39.616;8.824;2024-03-23T14:51:43;20.70;67.60
66608;DHT22;53462;39.616;8.824;2024-03-23T14:54:09;20.90;67.60
66608;DHT22;53462;39.616;8.824;2024-03-23T14:56:36;20.90;68.20
66608;DHT22;53462;39.616;8.824;2024-03-23T14:59:02;20.80;67.70
66608;DHT22;53462;39.616;8.824;2024-03-23T15:01:28;20.80;68.20
66608;DHT22;53462;39.616;8.824;2024-03-23T15:03:54;20.90;66.50
66608;DHT22;53462;39.616;8.824;2024-03-23T15:06:20;20.40;67.20
66608;DHT22;53462;39.616;8.824;2024-03-23T15:08:46;20.40;67.60
66608;DHT22;53462;39.616;8.824;2024-03-23T15:11:12;20.40;68.90
66608;DHT22;53462;39.616;8.824;2024-03-23T15:13:38;20.40;67.00
66608;DHT22;53462;39.616;8.824;2024-03-23T15:16:05;20.00;68.70
66608;DHT22;53462;39.616;8.824;2024-03-23T15:18:32;20.10;69.20
66608;DHT22;53462;39.616;8.824;2024-03-23T15:21:03;20.20;67.20
66608;DHT22;53462;39.616;8.824;2024-03-23T15:23:32;20.40;67.20
66608;DHT22;53462;39.616;8.824;2024-03-23T15:25:59;20.30;66.00
66608;DHT22;53462;39.616;8.824;2024-03-23T15:28:26;19.90;67.60
66608;DHT22;53462;39.616;8.824;2024-03-23T15:30:57;20.00;68.70
66608;DHT22;53462;39.616;8.824;2024-03-23T15:33:23;19.90;69.10
66608;DHT22;53462;39.616;8.824;2024-03-23T15:35:49;19.90;69.40
66608;DHT22;53462;39.616;8.824;2024-03-23T15:38:15;19.80;69.30
66608;DHT22;53462;39.616;8.824;2024-03-23T15:40:41;19.70;70.20
66608;DHT22;53462;39.616;8.824;2024-03-23T15:43:07;19.80;71.10
66608;DHT22;53462;39.616;8.824;2024-03-23T15:45:33;19.50;70.10
66608;DHT22;53462;39.616;8.824;2024-03-23T15:47:59;19.40;71.50
66608;DHT22;53462;39.616;8.824;2024-03-23T15:50:25;19.40;72.60
66608;DHT22;53462;39.616;8.824;2024-03-23T15:52:51;19.50;72.50
66608;DHT22;53462;39.616;8.824;2024-03-23T15:55:17;19.50;71.40
66608;DHT22;53462;39.616;8.824;2024-03-23T15:57:43;19.20;71.60
66608;DHT22;53462;39.616;8.824;2024-03-23T16:00:09;19.30;72.20
66608;DHT22;53462;39.616;8.824;2024-03-23T16:02:38;19.40;72.00
66608;DHT22;53462;39.616;8.824;2024-03-23T16:05:04;19.40;70.80
66608;DHT22;53462;39.616;8.824;2024-03-23T16:07:30;19.20;72.10
66608;DHT22;53462;39.616;8.824;2024-03-23T16:09:56;19.10;72.90
66608;DHT22;53462;39.616;8.824;2024-03-23T16:12:22;18.80;73.90
66608;DHT22;53462;39.616;8.824;2024-03-23T16:14:48;18.50;75.30
66608;DHT22;53462;39.616;8.824;2024-03-23T16:17:14;18.60;76.40
66608;DHT22;53462;39.616;8.824;2024-03-23T16:19:40;18.50;75.80
66608;DHT22;53462;39.616;8.824;2024-03-23T16:22:06;18.50;75.90
66608;DHT22;53462;39.616;8.824;2024-03-23T16:24:32;18.30;76.70
66608;DHT22;53462;39.616;8.824;2024-03-23T16:26:58;18.30;77.70
66608;DHT22;53462;39.616;8.824;2024-03-23T16:29:24;18.20;77.50
66608;DHT22;53462;39.616;8.824;2024-03-23T16:31:50;18.10;78.80